createdAt,value
2019-03-03T00:02:10.062Z,22.97
2019-03-03T00:04:39.562Z,24.80
2019-03-03T00:07:09.164Z,22.40
2019-03-03T00:09:41.468Z,23.57
2019-03-03T00:12:11.074Z,24.37
2019-03-03T00:14:42.346Z,21.10
2019-03-03T00:17:11.949Z,22.63
2019-03-03T00:19:41.546Z,21.87
2019-03-03T00:22:11.094Z,20.77
2019-03-03T00:24:40.630Z,21.13
2019-03-03T00:27:10.192Z,19.97
2019-03-03T00:29:39.719Z,21.00
2019-03-03T00:32:09.335Z,21.83
2019-03-03T00:34:39.006Z,20.27
2019-03-03T00:37:12.876Z,19.83
2019-03-03T00:39:47.523Z,19.03
2019-03-03T00:42:33.202Z,21.23
2019-03-03T00:45:22.546Z,22.93
2019-03-03T00:47:56.512Z,19.87
2019-03-03T00:50:27.799Z,23.67
2019-03-03T00:52:58.898Z,27.37
2019-03-03T00:55:48.048Z,23.87
2019-03-03T00:58:19.293Z,21.30
2019-03-03T01:00:53.242Z,20.67
2019-03-03T01:03:27.071Z,27.37
2019-03-03T01:05:58.330Z,21.23
2019-03-03T01:08:32.289Z,21.27
2019-03-03T01:11:19.914Z,20.00
2019-03-03T01:13:55.587Z,20.67
2019-03-03T01:16:38.593Z,20.93
2019-03-03T01:19:09.858Z,19.97
2019-03-03T01:21:49.663Z,20.33
2019-03-03T01:24:20.780Z,20.97
2019-03-03T01:26:50.318Z,19.73
2019-03-03T01:29:20.967Z,18.80
2019-03-03T01:31:50.480Z,22.27
2019-03-03T01:34:20.086Z,22.53
2019-03-03T01:36:49.586Z,20.70
2019-03-03T01:39:19.187Z,20.90
2019-03-03T01:41:48.764Z,21.20
2019-03-03T01:44:19.447Z,19.57
2019-03-03T01:46:49.003Z,20.90
2019-03-03T01:49:18.474Z,20.13
2019-03-03T01:51:47.944Z,20.93
2019-03-03T01:54:17.553Z,20.47
2019-03-03T01:56:47.110Z,22.07
2019-03-03T01:59:16.574Z,19.90
2019-03-03T02:01:46.082Z,19.60
2019-03-03T02:04:15.629Z,21.13
2019-03-03T02:06:45.238Z,20.03
2019-03-03T02:09:14.955Z,17.13
2019-03-03T02:11:44.551Z,20.80
2019-03-03T02:14:14.165Z,20.53
2019-03-03T02:16:43.860Z,20.57
2019-03-03T02:19:13.728Z,20.30
2019-03-03T02:21:43.382Z,19.73
2019-03-03T02:24:12.896Z,19.87
2019-03-03T02:26:45.550Z,20.00
2019-03-03T02:29:15.188Z,19.40
2019-03-03T02:31:44.737Z,21.53
2019-03-03T02:34:14.327Z,19.07
2019-03-03T02:36:43.904Z,21.30
2019-03-03T02:39:15.602Z,20.03
2019-03-03T02:41:45.170Z,21.33
2019-03-03T02:44:15.160Z,19.50
2019-03-03T02:46:44.827Z,21.13
2019-03-03T02:49:14.408Z,19.40
2019-03-03T02:51:43.919Z,19.53
2019-03-03T02:54:13.903Z,22.20
2019-03-03T02:56:43.409Z,21.97
2019-03-03T02:59:12.889Z,20.97
2019-03-03T03:01:49.582Z,21.73
2019-03-03T03:04:19.163Z,18.73
2019-03-03T03:07:08.299Z,21.03
2019-03-03T03:09:39.616Z,20.37
2019-03-03T03:12:13.570Z,20.97
2019-03-03T03:14:55.065Z,19.87
2019-03-03T03:17:26.209Z,18.77
2019-03-03T03:19:57.437Z,19.60
2019-03-03T03:22:44.854Z,20.43
2019-03-03T03:25:32.401Z,20.23
2019-03-03T03:28:15.889Z,21.47
2019-03-03T03:30:56.028Z,21.37
2019-03-03T03:33:27.181Z,17.57
2019-03-03T03:36:11.165Z,21.57
2019-03-03T03:38:42.270Z,19.50
2019-03-03T03:41:16.196Z,19.17
2019-03-03T03:43:56.410Z,20.97
2019-03-03T03:46:42.442Z,19.93
2019-03-03T03:49:35.727Z,20.30
2019-03-03T03:52:15.969Z,19.83
2019-03-03T03:54:47.264Z,19.97
2019-03-03T03:57:24.320Z,20.00
2019-03-03T03:59:55.461Z,17.97
2019-03-03T04:02:43.012Z,17.43
2019-03-03T04:05:14.295Z,18.47
2019-03-03T04:07:45.527Z,15.97
2019-03-03T04:10:26.930Z,18.33
2019-03-03T04:13:14.694Z,20.17
2019-03-03T04:15:45.939Z,19.93
2019-03-03T04:18:19.697Z,17.93
2019-03-03T04:21:07.249Z,19.07
2019-03-03T04:23:47.427Z,18.70
2019-03-03T04:26:33.815Z,19.50
2019-03-03T04:29:04.979Z,17.90
2019-03-03T04:31:52.552Z,18.70
2019-03-03T04:34:39.905Z,19.60
2019-03-03T04:37:27.470Z,19.07
2019-03-03T04:40:01.085Z,17.10
2019-03-03T04:42:35.875Z,17.63
2019-03-03T04:45:14.082Z,18.67
2019-03-03T04:47:57.401Z,17.37
2019-03-03T04:50:40.585Z,17.87
2019-03-03T04:53:29.642Z,19.43
2019-03-03T04:56:03.606Z,17.93
2019-03-03T04:58:50.895Z,18.27
2019-03-03T05:01:22.126Z,18.63
2019-03-03T05:04:02.007Z,17.70
2019-03-03T05:06:33.180Z,18.23
2019-03-03T05:09:04.423Z,16.73
2019-03-03T05:12:21.922Z,18.33
2019-03-03T05:14:55.851Z,20.40
2019-03-03T05:17:32.371Z,22.30
2019-03-03T05:20:03.726Z,18.43
2019-03-03T05:22:33.236Z,21.00
2019-03-03T05:25:02.792Z,18.97
2019-03-03T05:27:32.320Z,18.47
2019-03-03T05:30:01.843Z,19.23
2019-03-03T05:32:31.478Z,17.97
2019-03-03T05:35:01.051Z,18.23
2019-03-03T05:37:30.629Z,17.33
2019-03-03T05:40:00.113Z,19.80
2019-03-03T05:42:30.018Z,17.03
2019-03-03T05:44:59.482Z,17.93
2019-03-03T05:47:29.093Z,16.47
2019-03-03T05:49:58.616Z,17.93
2019-03-03T05:52:28.121Z,17.80
2019-03-03T05:54:57.640Z,17.13
2019-03-03T05:57:33.107Z,19.03
2019-03-03T06:00:02.707Z,18.57
2019-03-03T06:02:33.429Z,16.87
2019-03-03T06:05:03.004Z,17.20
2019-03-03T06:07:32.626Z,15.37
2019-03-03T06:10:02.151Z,17.00
2019-03-03T06:12:31.747Z,16.17
2019-03-03T06:15:03.421Z,17.07
2019-03-03T06:17:34.617Z,17.53
2019-03-03T06:20:07.404Z,17.67
2019-03-03T06:22:36.845Z,17.33
2019-03-03T06:25:08.493Z,17.47
2019-03-03T06:27:38.341Z,17.60
2019-03-03T06:30:13.841Z,17.37
2019-03-03T06:32:43.403Z,17.43
2019-03-03T06:35:13.731Z,18.07
2019-03-03T06:37:43.334Z,17.87
2019-03-03T06:40:13.039Z,15.33
2019-03-03T06:42:42.547Z,18.67
2019-03-03T06:45:13.838Z,17.77
2019-03-03T06:47:43.586Z,19.73
2019-03-03T06:50:13.686Z,19.40
2019-03-03T06:52:43.525Z,18.93
2019-03-03T06:58:01.095Z,18.63
2019-03-03T07:00:30.823Z,18.77
2019-03-03T07:03:00.596Z,17.47
2019-03-03T07:05:30.177Z,17.33
2019-03-03T07:07:59.642Z,16.93
2019-03-03T07:10:29.392Z,17.17
2019-03-03T07:12:59.198Z,15.67
2019-03-03T07:15:28.898Z,16.83
2019-03-03T07:17:59.391Z,14.90
2019-03-03T07:20:29.067Z,17.60
2019-03-03T07:22:58.676Z,15.90
2019-03-03T07:25:28.531Z,16.10
2019-03-03T07:27:58.099Z,17.00
2019-03-03T07:30:28.346Z,16.23
2019-03-03T07:33:05.282Z,17.37
2019-03-03T07:35:34.801Z,15.33
2019-03-03T07:38:04.517Z,15.10
2019-03-03T07:40:34.049Z,15.50
2019-03-03T07:43:06.320Z,15.87
2019-03-03T07:45:35.828Z,13.67
2019-03-03T07:48:05.461Z,14.67
2019-03-03T07:50:36.187Z,14.77
2019-03-03T07:53:05.761Z,14.33
2019-03-03T07:55:35.291Z,15.33
2019-03-03T07:58:04.902Z,14.97
2019-03-03T08:00:34.553Z,13.13
2019-03-03T08:03:04.192Z,15.87
2019-03-03T08:05:33.772Z,15.47
2019-03-03T08:08:03.396Z,14.60
2019-03-03T08:10:32.967Z,15.87
2019-03-03T08:13:09.294Z,15.63
2019-03-03T08:15:34.097Z,16.83
2019-03-03T08:18:03.975Z,15.87
2019-03-03T08:20:33.775Z,15.03
2019-03-03T08:23:03.767Z,16.00
2019-03-03T08:25:33.509Z,13.20
2019-03-03T08:28:03.233Z,14.23
2019-03-03T08:30:32.946Z,13.77
2019-03-03T08:33:02.558Z,15.57
2019-03-03T08:35:33.001Z,15.87
2019-03-03T08:38:02.647Z,14.93
2019-03-03T08:40:32.352Z,12.53
2019-03-03T08:43:23.005Z,12.93
2019-03-03T08:46:11.822Z,12.73
2019-03-03T08:48:43.063Z,12.70
2019-03-03T08:51:15.257Z,11.93
2019-03-03T08:53:46.505Z,13.27
2019-03-03T08:56:17.626Z,14.17
2019-03-03T08:58:48.805Z,12.97
2019-03-03T09:01:22.512Z,13.97
2019-03-03T09:03:53.823Z,14.47
2019-03-03T09:06:28.019Z,13.70
2019-03-03T09:09:15.264Z,15.20
2019-03-03T09:11:52.109Z,11.90
2019-03-03T09:14:26.136Z,14.03
2019-03-03T09:17:06.198Z,13.07
2019-03-03T09:19:44.940Z,12.17
2019-03-03T09:22:18.794Z,14.37
2019-03-03T09:24:52.662Z,12.67
2019-03-03T09:27:29.481Z,11.63
2019-03-03T09:30:06.757Z,12.60
2019-03-03T09:32:43.576Z,13.30
2019-03-03T09:35:14.883Z,11.63
2019-03-03T09:37:46.272Z,11.03
2019-03-03T09:40:17.614Z,13.53
2019-03-03T09:43:06.895Z,10.63
2019-03-03T09:45:54.434Z,11.63
2019-03-03T09:48:41.998Z,11.03
2019-03-03T09:51:19.258Z,11.00
2019-03-03T09:53:50.436Z,12.47
2019-03-03T09:56:21.653Z,10.43
2019-03-03T09:59:10.816Z,10.93
2019-03-03T10:01:50.917Z,11.37
2019-03-03T10:04:26.363Z,10.50
2019-03-03T10:07:09.562Z,9.97
2019-03-03T10:09:40.714Z,10.13
2019-03-03T10:12:11.998Z,10.13
2019-03-03T10:14:43.234Z,9.97
2019-03-03T10:17:17.245Z,9.77
2019-03-03T10:19:52.040Z,8.17
2019-03-03T10:22:26.107Z,9.50
2019-03-03T10:25:09.522Z,9.67
2019-03-03T10:27:57.388Z,7.67
2019-03-03T10:30:28.562Z,9.80
2019-03-03T10:33:16.207Z,8.97
2019-03-03T10:35:56.558Z,8.50
2019-03-03T10:38:36.178Z,7.20
2019-03-03T10:41:05.578Z,7.17
2019-03-03T10:43:39.486Z,7.47
2019-03-03T10:46:10.726Z,7.80
2019-03-03T10:48:44.727Z,6.43
2019-03-03T10:51:18.587Z,6.80
2019-03-03T10:53:49.742Z,7.27
2019-03-03T10:56:30.995Z,7.07
2019-03-03T10:59:05.042Z,7.57
2019-03-03T11:01:48.286Z,6.80
2019-03-03T11:04:19.570Z,7.20
2019-03-03T11:06:53.458Z,7.20
2019-03-03T11:09:42.704Z,6.40
2019-03-03T11:12:17.106Z,6.70
2019-03-03T11:14:48.366Z,5.93
2019-03-03T11:17:22.182Z,5.70
2019-03-03T11:19:53.404Z,5.90
2019-03-03T11:22:36.472Z,5.70
2019-03-03T11:25:10.460Z,6.00
2019-03-03T11:27:44.311Z,5.83
2019-03-03T11:30:28.721Z,6.03
2019-03-03T11:33:16.342Z,5.13
2019-03-03T11:35:50.135Z,5.53
2019-03-03T11:38:21.540Z,5.10
2019-03-03T11:41:04.928Z,4.90
2019-03-03T11:43:38.794Z,5.50
2019-03-03T11:46:19.075Z,5.33
2019-03-03T11:49:02.168Z,4.87
2019-03-03T11:51:33.435Z,5.30
2019-03-03T11:54:11.582Z,5.27
2019-03-03T11:56:54.854Z,5.27
2019-03-03T11:59:26.098Z,5.70
2019-03-03T12:01:57.265Z,5.20
2019-03-03T12:04:37.660Z,5.17
2019-03-03T12:07:08.889Z,4.77
2019-03-03T12:09:40.315Z,5.93
2019-03-03T12:12:11.524Z,5.47
2019-03-03T12:14:45.711Z,6.10
2019-03-03T12:17:22.703Z,5.80
2019-03-03T12:19:53.871Z,5.63
2019-03-03T12:22:26.178Z,5.20
2019-03-03T12:25:00.262Z,4.67
2019-03-03T12:27:45.032Z,4.70
2019-03-03T12:30:18.981Z,5.03
2019-03-03T12:33:06.449Z,4.70
2019-03-03T12:35:37.792Z,5.67
2019-03-03T12:38:11.914Z,5.80
2019-03-03T12:40:58.001Z,5.07
2019-03-03T12:43:47.204Z,4.70
2019-03-03T12:46:21.222Z,4.33
2019-03-03T12:48:55.474Z,4.90
2019-03-03T12:51:38.568Z,4.40
2019-03-03T12:54:22.064Z,4.80
2019-03-03T12:56:53.461Z,4.87
2019-03-03T12:59:27.510Z,4.77
2019-03-03T13:02:01.839Z,4.10
2019-03-03T13:04:38.709Z,4.27
2019-03-03T13:07:09.910Z,4.77
2019-03-03T13:09:49.959Z,4.40
2019-03-03T13:12:32.973Z,5.43
2019-03-03T13:15:04.184Z,4.73
2019-03-03T13:17:47.968Z,5.60
2019-03-03T13:20:14.463Z,6.10
2019-03-03T13:22:57.248Z,4.53
2019-03-03T13:25:40.231Z,5.17
2019-03-03T13:28:26.395Z,5.40
2019-03-03T13:31:01.877Z,5.63
2019-03-03T13:33:35.569Z,5.63
2019-03-03T13:36:07.902Z,5.40
2019-03-03T13:38:38.975Z,6.47
2019-03-03T13:41:22.299Z,6.27
2019-03-03T13:43:51.954Z,5.80
2019-03-03T13:46:21.471Z,5.90
2019-03-03T13:48:51.433Z,6.50
2019-03-03T13:51:24.976Z,5.07
2019-03-03T13:53:53.550Z,5.97
2019-03-03T13:56:23.358Z,5.43
2019-03-03T13:58:52.991Z,6.27
2019-03-03T14:01:22.726Z,5.97
2019-03-03T14:03:52.313Z,6.80
2019-03-03T14:06:21.920Z,6.10
2019-03-03T14:08:52.017Z,7.37
2019-03-03T14:11:31.444Z,6.17
2019-03-03T14:14:01.022Z,5.83
2019-03-03T14:16:30.794Z,5.37
2019-03-03T14:19:00.439Z,5.90
2019-03-03T14:21:31.734Z,5.47
2019-03-03T14:24:01.383Z,5.87
2019-03-03T14:26:30.959Z,6.37
2019-03-03T14:29:00.451Z,5.43
2019-03-03T14:31:30.162Z,6.07
2019-03-03T14:33:59.599Z,6.20
2019-03-03T14:36:29.206Z,5.87
2019-03-03T14:39:01.083Z,6.57
2019-03-03T14:41:32.605Z,6.37
2019-03-03T14:44:02.703Z,6.47
2019-03-03T14:46:32.303Z,5.53
2019-03-03T14:49:01.871Z,6.17
2019-03-03T14:51:31.462Z,6.90
2019-03-03T14:54:01.090Z,5.93
2019-03-03T14:56:30.654Z,6.17
2019-03-03T14:59:00.303Z,6.57
2019-03-03T15:01:29.875Z,6.20
2019-03-03T15:03:59.452Z,5.67
2019-03-03T15:06:28.979Z,6.23
2019-03-03T15:09:01.171Z,5.97
2019-03-03T15:11:32.233Z,5.63
2019-03-03T15:14:01.836Z,5.83
2019-03-03T15:16:31.493Z,6.67
2019-03-03T15:19:01.167Z,6.03
2019-03-03T15:21:30.988Z,6.73
2019-03-03T15:24:00.510Z,7.40
2019-03-03T15:26:30.152Z,6.77
2019-03-03T15:28:59.847Z,6.53
2019-03-03T15:31:37.446Z,7.77
2019-03-03T15:34:01.214Z,7.50
2019-03-03T15:36:30.901Z,6.47
2019-03-03T15:39:00.491Z,7.53
2019-03-03T15:41:30.654Z,7.67
2019-03-03T15:44:00.194Z,6.60
2019-03-03T15:46:29.850Z,6.63
2019-03-03T15:48:59.480Z,6.93
2019-03-03T15:51:30.197Z,7.43
2019-03-03T15:53:59.889Z,7.90
2019-03-03T15:56:29.477Z,6.60
2019-03-03T15:58:59.046Z,7.57
2019-03-03T16:01:28.654Z,7.27
2019-03-03T16:03:59.785Z,7.63
2019-03-03T16:06:29.323Z,8.27
2019-03-03T16:08:58.950Z,6.73
2019-03-03T16:11:29.474Z,7.50
2019-03-03T16:13:59.026Z,7.33
2019-03-03T16:16:28.558Z,7.00
2019-03-03T16:18:58.029Z,7.77
2019-03-03T16:21:27.622Z,7.40
2019-03-03T16:23:57.152Z,7.10
2019-03-03T16:26:26.729Z,8.23
2019-03-03T16:28:56.238Z,7.67
2019-03-03T16:31:25.774Z,7.87
2019-03-03T16:33:56.938Z,8.37
2019-03-03T16:36:26.553Z,9.53
2019-03-03T16:38:56.091Z,6.93
2019-03-03T16:41:25.706Z,6.67
2019-03-03T16:43:55.309Z,7.60
2019-03-03T16:46:24.768Z,8.50
2019-03-03T16:48:55.751Z,8.60
2019-03-03T16:51:25.447Z,8.90
2019-03-03T16:53:55.033Z,8.90
2019-03-03T16:56:24.683Z,7.93
2019-03-03T16:58:54.137Z,7.30
2019-03-03T17:01:23.813Z,6.97
2019-03-03T17:03:54.891Z,7.17
2019-03-03T17:06:24.561Z,7.23
2019-03-03T17:08:54.240Z,6.50
2019-03-03T17:11:23.753Z,5.60
2019-03-03T17:13:53.436Z,6.10
2019-03-03T17:16:23.141Z,7.07
2019-03-03T17:18:52.748Z,6.80
2019-03-03T17:21:22.362Z,6.87
2019-03-03T17:23:51.821Z,6.70
2019-03-03T17:26:21.403Z,6.77
2019-03-03T17:28:50.941Z,7.33
2019-03-03T17:31:20.545Z,7.80
2019-03-03T17:33:50.094Z,8.73
2019-03-03T17:36:19.681Z,7.37
2019-03-03T17:38:50.296Z,8.43
2019-03-03T17:41:19.927Z,7.43
2019-03-03T17:43:53.886Z,7.13
2019-03-03T17:46:23.470Z,7.10
2019-03-03T17:48:52.973Z,7.87
2019-03-03T17:51:22.742Z,7.87
2019-03-03T17:53:52.601Z,6.70
2019-03-03T17:56:22.212Z,7.33
2019-03-03T17:58:51.805Z,6.07
2019-03-03T18:01:21.363Z,7.57
2019-03-03T18:03:50.989Z,6.63
2019-03-03T18:06:22.222Z,6.10
2019-03-03T18:08:51.947Z,7.33
2019-03-03T18:11:21.895Z,7.07
2019-03-03T18:13:51.721Z,7.13
2019-03-03T18:16:21.297Z,6.37
2019-03-03T18:18:51.059Z,6.43
2019-03-03T18:21:20.703Z,6.13
2019-03-03T18:23:50.574Z,5.53
2019-03-03T18:26:20.288Z,5.47
2019-03-03T18:28:49.995Z,5.40
2019-03-03T18:31:20.222Z,5.70
2019-03-03T18:33:49.781Z,5.80
2019-03-03T18:36:19.561Z,5.30
2019-03-03T18:38:49.465Z,5.73
2019-03-03T18:41:19.327Z,5.00
2019-03-03T18:43:49.112Z,5.43
2019-03-03T18:46:19.012Z,5.17
2019-03-03T18:48:48.652Z,5.90
2019-03-03T18:51:18.231Z,5.70
2019-03-03T18:53:48.276Z,5.23
2019-03-03T18:56:18.209Z,5.83
2019-03-03T18:58:48.467Z,5.47
2019-03-03T19:01:19.510Z,5.30
2019-03-03T19:03:49.281Z,5.30
2019-03-03T19:06:18.932Z,5.13
2019-03-03T19:08:48.548Z,6.23
2019-03-03T19:11:18.253Z,5.90
2019-03-03T19:13:50.962Z,4.73
2019-03-03T19:16:20.591Z,5.97
2019-03-03T19:18:50.522Z,5.57
2019-03-03T19:21:20.231Z,5.63
2019-03-03T19:23:50.243Z,6.30
2019-03-03T19:26:20.111Z,4.90
2019-03-03T19:28:49.994Z,5.93
2019-03-03T19:31:20.952Z,5.07
2019-03-03T19:33:53.104Z,5.60
2019-03-03T19:36:22.610Z,5.67
2019-03-03T19:38:52.644Z,5.20
2019-03-03T19:41:22.229Z,5.67
2019-03-03T19:43:53.045Z,5.20
2019-03-03T19:46:23.130Z,5.73
2019-03-03T19:48:54.132Z,5.80
2019-03-03T19:51:23.827Z,5.93
2019-03-03T19:53:53.355Z,6.37
2019-03-03T19:56:22.966Z,6.20
2019-03-03T19:58:52.624Z,5.63
2019-03-03T20:01:22.452Z,6.07
2019-03-03T20:03:52.222Z,7.30
2019-03-03T20:06:21.879Z,6.73
2019-03-03T20:08:51.517Z,5.80
2019-03-03T20:11:21.540Z,6.20
2019-03-03T20:13:51.234Z,5.83
2019-03-03T20:16:20.931Z,6.70
2019-03-03T20:18:50.462Z,6.17
2019-03-03T20:21:20.299Z,6.20
2019-03-03T20:23:50.051Z,5.90
2019-03-03T20:26:20.963Z,5.97
2019-03-03T20:28:51.649Z,6.87
2019-03-03T20:31:21.340Z,6.60
2019-03-03T20:33:51.022Z,5.83
2019-03-03T20:36:20.490Z,5.93
2019-03-03T20:38:50.171Z,6.87
2019-03-03T20:41:19.786Z,6.17
2019-03-03T20:43:49.377Z,5.40
2019-03-03T20:46:20.157Z,5.70
2019-03-03T20:48:49.869Z,6.23
2019-03-03T20:51:19.473Z,6.77
2019-03-03T20:53:49.013Z,7.23
2019-03-03T20:56:18.617Z,5.90
2019-03-03T20:58:48.082Z,5.83
2019-03-03T21:01:17.617Z,6.20
2019-03-03T21:03:47.060Z,6.13
2019-03-03T21:06:16.641Z,6.23
2019-03-03T21:08:46.543Z,6.33
2019-03-03T21:11:16.164Z,6.50
2019-03-03T21:13:45.700Z,5.30
2019-03-03T21:16:15.271Z,6.10
2019-03-03T21:18:44.856Z,6.33
2019-03-03T21:21:14.495Z,6.43
2019-03-03T21:23:44.004Z,6.67
2019-03-03T21:26:13.709Z,5.30
2019-03-03T21:28:44.483Z,6.53
2019-03-03T21:31:14.038Z,6.97
2019-03-03T21:33:43.646Z,6.40
2019-03-03T21:36:13.089Z,7.10
2019-03-03T21:38:42.699Z,6.57
2019-03-03T21:41:12.247Z,5.30
2019-03-03T21:43:41.827Z,6.50
2019-03-03T21:46:11.370Z,6.77
2019-03-03T21:48:40.916Z,6.30
2019-03-03T21:51:10.991Z,6.00
2019-03-03T21:53:40.679Z,6.77
2019-03-03T21:56:10.357Z,6.47
2019-03-03T21:58:39.894Z,6.27
2019-03-03T22:01:09.505Z,6.70
2019-03-03T22:03:39.201Z,6.30
2019-03-03T22:06:08.869Z,5.90
2019-03-03T22:08:38.730Z,5.27
2019-03-03T22:11:08.171Z,5.50
2019-03-03T22:13:37.730Z,5.43
2019-03-03T22:16:07.262Z,5.90
2019-03-03T22:18:36.978Z,5.60
2019-03-03T22:21:06.543Z,5.47
2019-03-03T22:23:37.569Z,6.30
2019-03-03T22:26:07.114Z,5.53
2019-03-03T22:28:36.636Z,5.57
2019-03-03T22:31:07.226Z,5.10
2019-03-03T22:33:36.951Z,5.40
2019-03-03T22:36:06.665Z,4.20
2019-03-03T22:38:36.098Z,4.83
2019-03-03T22:41:05.665Z,4.90
2019-03-03T22:43:35.257Z,5.27
2019-03-03T22:46:04.952Z,5.43
2019-03-03T22:48:34.416Z,5.17
2019-03-03T22:51:03.959Z,4.50
2019-03-03T22:53:33.554Z,4.77
2019-03-03T22:56:03.212Z,5.10
2019-03-03T22:58:32.778Z,4.80
2019-03-03T23:01:05.306Z,5.17
2019-03-03T23:03:37.996Z,5.17
2019-03-03T23:06:20.627Z,5.07
2019-03-03T23:09:11.083Z,5.40
2019-03-03T23:12:04.015Z,4.73
2019-03-03T23:14:45.898Z,5.00
2019-03-03T23:17:24.243Z,4.77
2019-03-03T23:20:32.050Z,4.67
2019-03-03T23:23:10.649Z,5.00
2019-03-03T23:25:51.718Z,3.90
2019-03-03T23:28:21.623Z,4.67
2019-03-03T23:30:52.361Z,4.10
2019-03-03T23:33:21.979Z,4.53
2019-03-03T23:35:51.532Z,4.50
2019-03-03T23:38:21.114Z,3.87
2019-03-03T23:40:50.742Z,4.60
2019-03-03T23:43:20.330Z,4.43
2019-03-03T23:45:49.905Z,4.30
2019-03-03T23:48:19.468Z,4.77
2019-03-03T23:50:48.967Z,4.17
2019-03-03T23:53:18.432Z,4.00
2019-03-03T23:55:47.985Z,4.10
2019-03-03T23:58:17.754Z,4.03
